Time,TemperatureF,DewpointF,PressureIn,WindDirection,WindDirectionDegrees,WindSpeedMPH,WindSpeedGustMPH,Humidity,HourlyPrecipIn,Conditions,Clouds,dailyrainin,SoftwareType,DateUTC
2013-04-14 00:03:00,73.0,37.0,29.66,South,171,8.0,-999.0,27,-99.99,,,0.00,weatherlink.com 1.10,2013-04-14 07:03:00,
2013-04-14 00:18:00,73.0,38.0,29.65,South,178,11.0,-999.0,28,-99.99,,,0.00,weatherlink.com 1.10,2013-04-14 07:18:00,
2013-04-14 00:33:00,72.6,39.0,29.65,SSE,163,12.0,-999.0,29,-99.99,,,0.00,weatherlink.com 1.10,2013-04-14 07:33:00,
2013-04-14 00:48:00,72.0,40.0,29.65,South,172,7.0,-999.0,31,-99.99,,,0.00,weatherlink.com 1.10,2013-04-14 07:48:00,
2013-04-14 01:03:00,71.9,40.0,29.65,South,177,9.0,-999.0,31,-99.99,,,0.00,weatherlink.com 1.10,2013-04-14 08:03:00,
2013-04-14 01:18:00,71.3,40.0,29.65,SSE,163,8.0,-999.0,32,-99.99,,,0.00,weatherlink.com 1.10,2013-04-14 08:18:00,
2013-04-14 01:33:00,70.9,40.0,29.64,South,176,6.0,-999.0,33,-99.99,,,0.00,weatherlink.com 1.10,2013-04-14 08:33:00,
2013-04-14 01:48:00,70.7,40.0,29.64,SE,140,4.0,-999.0,33,-99.99,,,0.00,weatherlink.com 1.10,2013-04-14 08:48:00,
2013-04-14 02:03:00,70.8,40.0,29.64,South,188,6.0,-999.0,33,-99.99,,,0.00,weatherlink.com 1.10,2013-04-14 09:03:00,
2013-04-14 02:18:00,70.8,39.0,29.64,South,188,13.0,-999.0,32,-99.99,,,0.00,weatherlink.com 1.10,2013-04-14 09:18:00,
2013-04-14 02:33:00,70.7,40.0,29.63,South,184,11.0,-999.0,33,-99.99,,,0.00,weatherlink.com 1.10,2013-04-14 09:33:00,
2013-04-14 02:48:00,70.2,40.0,29.63,SSE,167,6.0,-999.0,33,-99.99,,,0.00,weatherlink.com 1.10,2013-04-14 09:48:00,
2013-04-14 03:03:00,69.8,40.0,29.64,ESE,114,4.0,-999.0,34,-99.99,,,0.00,weatherlink.com 1.10,2013-04-14 10:03:00,
2013-04-14 03:18:00,69.2,40.0,29.64,ESE,121,4.0,-999.0,34,-99.99,,,0.00,weatherlink.com 1.10,2013-04-14 10:18:00,
2013-04-14 03:33:00,68.6,40.0,29.64,SE,130,5.0,-999.0,35,-99.99,,,0.00,weatherlink.com 1.10,2013-04-14 10:33:00,
2013-04-14 03:49:00,69.1,37.0,29.64,SSE,165,11.0,-999.0,31,-99.99,,,0.00,weatherlink.com 1.10,2013-04-14 10:49:00,
2013-04-14 04:04:00,69.3,38.0,29.63,South,190,9.0,-999.0,32,-99.99,,,0.00,weatherlink.com 1.10,2013-04-14 11:04:00,
2013-04-14 04:19:00,68.9,39.0,29.64,SSE,167,2.0,-999.0,33,-99.99,,,0.00,weatherlink.com 1.10,2013-04-14 11:19:00,
2013-04-14 04:34:00,68.4,39.0,29.64,SSE,166,6.0,-999.0,34,-99.99,,,0.00,weatherlink.com 1.10,2013-04-14 11:34:00,
2013-04-14 04:49:00,68.4,38.0,29.64,SSE,158,4.0,-999.0,33,-99.99,,,0.00,weatherlink.com 1.10,2013-04-14 11:49:00,
2013-04-14 05:04:00,68.4,37.0,29.64,South,169,6.0,-999.0,32,-99.99,,,0.00,weatherlink.com 1.10,2013-04-14 12:04:00,
2013-04-14 05:19:00,67.7,37.0,29.64,SSE,160,8.0,-999.0,33,-99.99,,,0.00,weatherlink.com 1.10,2013-04-14 12:19:00,
2013-04-14 05:34:00,68.0,37.0,29.63,SSE,163,7.0,-999.0,32,-99.99,,,0.00,weatherlink.com 1.10,2013-04-14 12:34:00,
2013-04-14 05:49:00,68.1,35.0,29.64,SSE,165,9.0,-999.0,30,-99.99,,,0.00,weatherlink.com 1.10,2013-04-14 12:49:00,
2013-04-14 06:04:00,67.8,35.0,29.64,South,172,6.0,-999.0,30,-99.99,,,0.00,weatherlink.com 1.10,2013-04-14 13:04:00,
2013-04-14 06:19:00,67.6,36.0,29.64,SSE,158,9.0,-999.0,31,-99.99,,,0.00,weatherlink.com 1.10,2013-04-14 13:19:00,
2013-04-14 06:34:00,67.6,36.0,29.64,SSE,163,6.0,-999.0,31,-99.99,,,0.00,weatherlink.com 1.10,2013-04-14 13:34:00,
2013-04-14 06:49:00,67.6,36.0,29.65,South,172,5.0,-999.0,31,-99.99,,,0.00,weatherlink.com 1.10,2013-04-14 13:49:00,
2013-04-14 07:04:00,68.3,35.0,29.65,SSE,154,6.0,-999.0,29,-99.99,,,0.00,weatherlink.com 1.10,2013-04-14 14:04:00,
2013-04-14 07:19:00,69.5,36.0,29.66,SE,144,4.0,-999.0,29,-99.99,,,0.00,weatherlink.com 1.10,2013-04-14 14:19:00,
2013-04-14 07:34:00,70.3,36.0,29.66,SSE,158,8.0,-999.0,29,-99.99,,,0.00,weatherlink.com 1.10,2013-04-14 14:34:00,
2013-04-14 07:49:00,71.4,36.0,29.66,SSE,151,8.0,-999.0,27,-99.99,,,0.00,weatherlink.com 1.10,2013-04-14 14:49:00,
2013-04-14 08:04:00,72.0,35.0,29.66,SSE,167,10.0,-999.0,26,-99.99,,,0.00,weatherlink.com 1.10,2013-04-14 15:04:00,
2013-04-14 08:19:00,72.4,34.0,29.67,SSE,163,7.0,-999.0,24,-99.99,,,0.00,weatherlink.com 1.10,2013-04-14 15:19:00,
2013-04-14 08:34:00,73.6,30.0,29.67,South,175,13.0,-999.0,20,-99.99,,,0.00,weatherlink.com 1.10,2013-04-14 15:34:00,
2013-04-14 08:49:00,74.4,31.0,29.67,SSE,164,9.0,-999.0,20,-99.99,,,0.00,weatherlink.com 1.10,2013-04-14 15:49:00,
2013-04-14 09:04:00,75.0,31.0,29.68,South,172,6.0,-999.0,20,-99.99,,,0.00,weatherlink.com 1.10,2013-04-14 16:04:00,
2013-04-14 09:19:00,75.8,29.0,29.68,SSW,194,7.0,-999.0,18,-99.99,,,0.00,weatherlink.com 1.10,2013-04-14 16:19:00,
2013-04-14 09:34:00,77.0,29.0,29.68,South,183,4.0,-999.0,17,-99.99,,,0.00,weatherlink.com 1.10,2013-04-14 16:34:00,
2013-04-14 09:49:00,77.6,32.0,29.68,SSE,156,7.0,-999.0,19,-99.99,,,0.00,weatherlink.com 1.10,2013-04-14 16:49:00,
2013-04-14 10:04:00,78.1,33.0,29.68,South,179,7.0,-999.0,19,-99.99,,,0.00,weatherlink.com 1.10,2013-04-14 17:04:00,
2013-04-14 10:19:00,79.1,32.0,29.68,South,186,0.0,-999.0,18,-99.99,,,0.00,weatherlink.com 1.10,2013-04-14 17:19:00,
2013-04-14 10:34:00,80.4,32.0,29.68,South,169,2.0,-999.0,17,-99.99,,,0.00,weatherlink.com 1.10,2013-04-14 17:34:00,
2013-04-14 10:49:00,80.2,33.0,29.67,SSE,155,0.0,-999.0,18,-99.99,,,0.00,weatherlink.com 1.10,2013-04-14 17:49:00,
2013-04-14 11:04:00,81.3,32.0,29.67,SSE,165,5.0,-999.0,17,-99.99,,,0.00,weatherlink.com 1.10,2013-04-14 18:04:00,
2013-04-14 11:19:00,82.8,34.0,29.67,South,182,3.0,-999.0,17,-99.99,,,0.00,weatherlink.com 1.10,2013-04-14 18:19:00,
2013-04-14 11:34:00,83.2,35.0,29.67,South,182,5.0,-999.0,18,-99.99,,,0.00,weatherlink.com 1.10,2013-04-14 18:34:00,
2013-04-14 11:49:00,82.8,35.0,29.66,South,184,5.0,-999.0,18,-99.99,,,0.00,weatherlink.com 1.10,2013-04-14 18:49:00,
2013-04-14 12:04:00,83.8,35.0,29.66,SSW,207,8.0,-999.0,17,-99.99,,,0.00,weatherlink.com 1.10,2013-04-14 19:04:00,
2013-04-14 12:20:00,84.8,34.0,29.65,South,181,6.0,-999.0,16,-99.99,,,0.00,weatherlink.com 1.10,2013-04-14 19:20:00,
2013-04-14 12:35:00,84.5,34.0,29.65,SSW,193,7.0,-999.0,16,-99.99,,,0.00,weatherlink.com 1.10,2013-04-14 19:35:00,
2013-04-14 12:50:00,84.7,34.0,29.64,SSE,168,8.0,-999.0,16,-99.99,,,0.00,weatherlink.com 1.10,2013-04-14 19:50:00,
2013-04-14 13:05:00,85.8,35.0,29.64,South,190,7.0,-999.0,16,-99.99,,,0.00,weatherlink.com 1.10,2013-04-14 20:05:00,
2013-04-14 13:20:00,86.0,33.0,29.63,South,190,6.0,-999.0,15,-99.99,,,0.00,weatherlink.com 1.10,2013-04-14 20:20:00,
2013-04-14 13:35:00,86.7,34.0,29.63,SSW,202,4.0,-999.0,15,-99.99,,,0.00,weatherlink.com 1.10,2013-04-14 20:35:00,
2013-04-14 13:50:00,87.2,36.0,29.62,SW,232,7.0,-999.0,16,-99.99,,,0.00,weatherlink.com 1.10,2013-04-14 20:50:00,
2013-04-14 14:05:00,87.8,36.0,29.61,WSW,257,4.0,-999.0,16,-99.99,,,0.00,weatherlink.com 1.10,2013-04-14 21:05:00,
2013-04-14 14:20:00,88.0,36.0,29.61,SW,234,2.0,-999.0,16,-99.99,,,0.00,weatherlink.com 1.10,2013-04-14 21:20:00,
2013-04-14 14:35:00,87.7,36.0,29.60,SW,234,5.0,-999.0,16,-99.99,,,0.00,weatherlink.com 1.10,2013-04-14 21:35:00,
2013-04-14 14:50:00,87.6,36.0,29.59,South,184,12.0,-999.0,16,-99.99,,,0.00,weatherlink.com 1.10,2013-04-14 21:50:00,
2013-04-14 15:05:00,87.6,38.0,29.59,South,190,4.0,-999.0,17,-99.99,,,0.00,weatherlink.com 1.10,2013-04-14 22:05:00,
2013-04-14 15:20:00,87.8,39.0,29.58,SSW,195,10.0,-999.0,18,-99.99,,,0.00,weatherlink.com 1.10,2013-04-14 22:20:00,
2013-04-14 15:35:00,87.7,39.0,29.57,South,179,6.0,-999.0,18,-99.99,,,0.00,weatherlink.com 1.10,2013-04-14 22:35:00,
2013-04-14 15:51:00,87.6,38.0,29.56,South,173,9.0,-999.0,17,-99.99,,,0.00,weatherlink.com 1.10,2013-04-14 22:51:00,
2013-04-14 16:05:00,87.7,38.0,29.56,South,188,3.0,-999.0,17,-99.99,,,0.00,weatherlink.com 1.10,2013-04-14 23:05:00,
2013-04-14 16:21:00,88.2,38.0,29.56,South,182,9.0,-999.0,17,-99.99,,,0.00,weatherlink.com 1.10,2013-04-14 23:21:00,
2013-04-14 16:36:00,88.1,37.0,29.55,SSE,161,7.0,-999.0,16,-99.99,,,0.00,weatherlink.com 1.10,2013-04-14 23:36:00,
2013-04-14 16:50:00,88.1,37.0,29.55,SSW,196,6.0,-999.0,16,-99.99,,,0.00,weatherlink.com 1.10,2013-04-14 23:50:00,
2013-04-14 17:20:00,88.0,38.0,29.54,SW,236,10.0,-999.0,17,-99.99,,,0.00,weatherlink.com 1.10,2013-04-15 00:20:00,
2013-04-14 17:50:00,87.5,39.0,29.55,WSW,237,6.0,-999.0,18,-99.99,,,0.00,weatherlink.com 1.10,2013-04-15 00:50:00,
2013-04-14 18:06:00,86.7,38.0,29.55,SW,234,5.0,-999.0,18,-99.99,,,0.00,weatherlink.com 1.10,2013-04-15 01:06:00,
2013-04-14 18:21:00,85.6,39.0,29.54,South,188,10.0,-999.0,19,-99.99,,,0.00,weatherlink.com 1.10,2013-04-15 01:21:00,
2013-04-14 18:35:00,84.7,39.0,29.54,SSW,202,2.0,-999.0,20,-99.99,,,0.00,weatherlink.com 1.10,2013-04-15 01:35:00,
2013-04-14 18:51:00,83.8,40.0,29.55,SW,228,1.0,-999.0,21,-99.99,,,0.00,weatherlink.com 1.10,2013-04-15 01:51:00,
2013-04-14 19:06:00,83.0,39.0,29.55,SW,228,2.0,-999.0,21,-99.99,,,0.00,weatherlink.com 1.10,2013-04-15 02:06:00,
2013-04-14 19:20:00,82.5,40.0,29.55,SSW,212,2.0,-999.0,22,-99.99,,,0.00,weatherlink.com 1.10,2013-04-15 02:20:00,
2013-04-14 19:36:00,81.9,39.0,29.55,SSW,208,4.0,-999.0,22,-99.99,,,0.00,weatherlink.com 1.10,2013-04-15 02:36:00,
2013-04-14 19:51:00,81.7,40.0,29.55,South,183,4.0,-999.0,23,-99.99,,,0.00,weatherlink.com 1.10,2013-04-15 02:51:00,
2013-04-14 20:05:00,80.7,42.0,29.55,South,180,9.0,-999.0,25,-99.99,,,0.00,weatherlink.com 1.10,2013-04-15 03:05:00,
2013-04-14 20:21:00,79.7,42.0,29.56,SSE,168,6.0,-999.0,26,-99.99,,,0.00,weatherlink.com 1.10,2013-04-15 03:21:00,
2013-04-14 20:36:00,79.2,42.0,29.56,South,169,9.0,-999.0,27,-99.99,,,0.00,weatherlink.com 1.10,2013-04-15 03:36:00,
2013-04-14 20:51:00,78.7,43.0,29.57,South,184,8.0,-999.0,28,-99.99,,,0.00,weatherlink.com 1.10,2013-04-15 03:51:00,
2013-04-14 21:06:00,78.3,40.0,29.57,South,190,3.0,-999.0,25,-99.99,,,0.00,weatherlink.com 1.10,2013-04-15 04:06:00,
2013-04-14 21:21:00,77.9,35.0,29.58,South,181,4.0,-999.0,21,-99.99,,,0.00,weatherlink.com 1.10,2013-04-15 04:21:00,
2013-04-14 21:36:00,77.5,35.0,29.58,South,186,8.0,-999.0,21,-99.99,,,0.00,weatherlink.com 1.10,2013-04-15 04:36:00,
2013-04-14 21:51:00,76.8,35.0,29.59,South,177,8.0,-999.0,22,-99.99,,,0.00,weatherlink.com 1.10,2013-04-15 04:51:00,
2013-04-14 22:06:00,75.9,37.0,29.60,SSW,212,4.0,-999.0,24,-99.99,,,0.00,weatherlink.com 1.10,2013-04-15 05:06:00,
2013-04-14 22:21:00,75.0,39.0,29.60,South,188,1.0,-999.0,27,-99.99,,,0.00,weatherlink.com 1.10,2013-04-15 05:21:00,
2013-04-14 22:36:00,74.3,39.0,29.60,South,181,8.0,-999.0,28,-99.99,,,0.00,weatherlink.com 1.10,2013-04-15 05:36:00,
2013-04-14 22:51:00,73.4,40.0,29.61,South,184,6.0,-999.0,30,-99.99,,,0.00,weatherlink.com 1.10,2013-04-15 05:51:00,
2013-04-14 23:06:00,72.6,40.0,29.61,South,188,6.0,-999.0,31,-99.99,,,0.00,weatherlink.com 1.10,2013-04-15 06:06:00,
2013-04-14 23:21:00,72.5,43.0,29.61,SSW,193,7.0,-999.0,35,-99.99,,,0.00,weatherlink.com 1.10,2013-04-15 06:21:00,
2013-04-14 23:36:00,72.0,44.0,29.61,South,186,9.0,-999.0,36,-99.99,,,0.00,weatherlink.com 1.10,2013-04-15 06:36:00,
2013-04-14 23:51:00,71.2,43.0,29.62,South,172,5.0,-999.0,36,-99.99,,,0.00,weatherlink.com 1.10,2013-04-15 06:51:00,